| time (UTC) | temp C | wind direction | speed KPH | gust KPH | rain 1hr cm | rain 24hr cm | rain mn cm | humidity % | barometer mb |
| 20260507203402 | 31 | 81 | 1.6 | 1.6 | 0.00 | 0.00 | 0.00 | 14 | 1012.3 |
| 20260507202858 | 32 | 132 | 4.8 | 6.4 | 0.00 | 0.00 | 0.00 | 14 | 1012.3 |
| 20260507202355 | 32 | 335 | 11.3 | 12.9 | 0.00 | 0.00 | 0.00 | 13 | 1012.6 |
| 20260507201850 | 32 | 223 | 6.4 | 9.7 | 0.00 | 0.00 | 0.00 | 13 | 1012.3 |
| 20260507201346 | 31 | 334 | 9.7 | 9.7 | 0.00 | 0.00 | 0.00 | 14 | 1012.3 |
| 20260507200842 | 32 | 196 | 12.9 | 16.1 | 0.00 | 0.00 | 0.00 | 13 | 1012.6 |
| 20260507200338 | 31 | 50 | 1.6 | 1.6 | 0.00 | 0.00 | 0.00 | 14 | 1012.6 |
| 20260507195835 | 31 | 75 | 4.8 | 4.8 | 0.00 | 0.00 | 0.00 | 14 | 1012.8 |
| 20260507195332 | 31 | 171 | 8.0 | 9.7 | 0.00 | 0.00 | 0.00 | 14 | 1012.9 |
| 20260507194829 | 31 | 145 | 6.4 | 6.4 | 0.00 | 0.00 | 0.00 | 14 | 1012.8 |
| 20260507194325 | 31 | 176 | 9.7 | 11.3 | 0.00 | 0.00 | 0.00 | 14 | 1013.0 |
| 20260507193822 | 31 | 117 | 6.4 | 6.4 | 0.00 | 0.00 | 0.00 | 14 | 1012.9 |
| 20260507193320 | 31 | 147 | 14.5 | 16.1 | 0.00 | 0.00 | 0.00 | 14 | 1013.1 |
| 20260507192815 | 32 | 253 | 9.7 | 12.9 | 0.00 | 0.00 | 0.00 | 14 | 1013.1 |
| 20260507192312 | 32 | 16 | 3.2 | 3.2 | 0.00 | 0.00 | 0.00 | 14 | 1013.3 |
| 20260507191808 | 31 | 31 | 1.6 | 3.2 | 0.00 | 0.00 | 0.00 | 14 | 1013.4 |
| 20260507191305 | 31 | 95 | 6.4 | 9.7 | 0.00 | 0.00 | 0.00 | 14 | 1013.5 |
| 20260507190802 | 30 | 17 | 1.6 | 1.6 | 0.00 | 0.00 | 0.00 | 15 | 1013.6 |
| 20260507190300 | 30 | 131 | 11.3 | 12.9 | 0.00 | 0.00 | 0.00 | 14 | 1013.7 |
| 20260507185758 | 31 | 163 | 11.3 | 14.5 | 0.00 | 0.00 | 0.00 | 14 | 1013.5 |
| 20260507185255 | 31 | 204 | 9.7 | 11.3 | 0.00 | 0.00 | 0.00 | 14 | 1013.7 |
| 20260507184752 | 31 | 101 | 12.9 | 16.1 | 0.00 | 0.00 | 0.00 | 14 | 1013.8 |
| 20260507184250 | 30 | 253 | 6.4 | 9.7 | 0.00 | 0.00 | 0.00 | 15 | 1013.7 |
| 20260507183747 | 31 | 186 | 8.0 | 12.9 | 0.00 | 0.00 | 0.00 | 15 | 1013.9 |
| 20260507183244 | 30 | 99 | 12.9 | 16.1 | 0.00 | 0.00 | 0.00 | 15 | 1013.8 |
| 20260507182741 | 31 | 200 | 4.8 | 6.4 | 0.00 | 0.00 | 0.00 | 15 | 1013.9 |
| 20260507182236 | 31 | 105 | 4.8 | 4.8 | 0.00 | 0.00 | 0.00 | 14 | 1014.0 |
| 20260507181733 | 30 | 17 | 3.2 | 4.8 | 0.00 | 0.00 | 0.00 | 15 | 1014.0 |
| 20260507181229 | 31 | 81 | 6.4 | 9.7 | 0.00 | 0.00 | 0.00 | 14 | 1014.0 |
| 20260507180726 | 31 | 194 | 6.4 | 6.4 | 0.00 | 0.00 | 0.00 | 14 | 1014.3 |
| 20260507180223 | 31 | 166 | 4.8 | 6.4 | 0.00 | 0.00 | 0.00 | 14 | 1013.9 |
| 20260507175718 | 30 | 202 | 9.7 | 11.3 | 0.00 | 0.00 | 0.00 | 15 | 1014.0 |
| 20260507175215 | 31 | 263 | 6.4 | 9.7 | 0.00 | 0.00 | 0.00 | 14 | 1014.4 |
| 20260507174713 | 30 | 278 | 8.0 | 9.7 | 0.00 | 0.00 | 0.00 | 15 | 1014.3 |
| 20260507174211 | 30 | 17 | 1.6 | 3.2 | 0.00 | 0.00 | 0.00 | 15 | 1014.3 |
| 20260507173708 | 29 | 114 | 3.2 | 4.8 | 0.00 | 0.00 | 0.00 | 15 | 1014.5 |
| 20260507173205 | 30 | 237 | 9.7 | 12.9 | 0.00 | 0.00 | 0.00 | 15 | 1014.4 |
| 20260507172701 | 30 | 170 | 8.0 | 11.3 | 0.00 | 0.00 | 0.00 | 15 | 1014.5 |
| 20260507172158 | 30 | 191 | 3.2 | 3.2 | 0.00 | 0.00 | 0.00 | 15 | 1014.5 |
| 20260507171653 | 28 | 61 | 3.2 | 3.2 | 0.00 | 0.00 | 0.00 | 16 | 1014.7 |
| 20260507171150 | 28 | 47 | 0.0 | 0.0 | 0.00 | 0.00 | 0.00 | 16 | 1014.6 |
| 20260507170647 | 29 | 159 | 11.3 | 14.5 | 0.00 | 0.00 | 0.00 | 16 | 1014.6 |
| 20260507170144 | 28 | 113 | 1.6 | 3.2 | 0.00 | 0.00 | 0.00 | 17 | 1014.4 |
| 20260507165640 | 28 | 143 | 4.8 | 4.8 | 0.00 | 0.00 | 0.00 | 16 | 1014.6 |
| 20260507165136 | 28 | 183 | 6.4 | 6.4 | 0.00 | 0.00 | 0.00 | 17 | 1014.7 |
| 20260507164632 | 28 | 56 | 1.6 | 3.2 | 0.00 | 0.00 | 0.00 | 17 | 1014.7 |
| 20260507164129 | 28 | 102 | 4.8 | 6.4 | 0.00 | 0.00 | 0.00 | 17 | 1014.6 |
| 20260507163626 | 28 | 319 | 4.8 | 4.8 | 0.00 | 0.00 | 0.00 | 18 | 1014.6 |
| 20260507163124 | 27 | 299 | 3.2 | 3.2 | 0.00 | 0.00 | 0.00 | 18 | 1014.8 |
| 20260507162619 | 27 | 16 | 3.2 | 3.2 | 0.00 | 0.00 | 0.00 | 19 | 1014.8 |
| 20260507162116 | 26 | 190 | 4.8 | 4.8 | 0.00 | 0.00 | 0.00 | 19 | 1014.8 |
| 20260507161612 | 27 | 47 | 1.6 | 1.6 | 0.00 | 0.00 | 0.00 | 19 | 1015.0 |
| 20260507161109 | 26 | 226 | 8.0 | 9.7 | 0.00 | 0.00 | 0.00 | 20 | 1015.0 |
| 20260507160606 | 26 | 223 | 11.3 | 12.9 | 0.00 | 0.00 | 0.00 | 20 | 1014.9 |
| 20260507155557 | 26 | 212 | 6.4 | 6.4 | 0.00 | 0.00 | 0.00 | 21 | 1015.0 |
| 20260507155054 | 26 | 189 | 4.8 | 4.8 | 0.00 | 0.00 | 0.00 | 21 | 1015.0 |
| 20260507154551 | 26 | 336 | 3.2 | 4.8 | 0.00 | 0.00 | 0.00 | 21 | 1015.1 |
| 20260507154048 | 26 | 134 | 9.7 | 11.3 | 0.00 | 0.00 | 0.00 | 21 | 1015.0 |
| 20260507153545 | 26 | 308 | 3.2 | 3.2 | 0.00 | 0.00 | 0.00 | 21 | 1015.1 |
| 20260507153041 | 26 | 82 | 6.4 | 9.7 | 0.00 | 0.00 | 0.00 | 21 | 1015.0 |
| 20260507152537 | 25 | 162 | 3.2 | 3.2 | 0.00 | 0.00 | 0.00 | 22 | 1015.0 |
| 20260507152034 | 25 | 282 | 3.2 | 4.8 | 0.00 | 0.00 | 0.00 | 23 | 1015.1 |
| 20260507151530 | 25 | 56 | 1.6 | 1.6 | 0.00 | 0.00 | 0.00 | 23 | 1014.9 |
| 20260507151027 | 25 | 6 | 3.2 | 4.8 | 0.00 | 0.00 | 0.00 | 24 | 1015.2 |
| 20260507150524 | 24 | 290 | 3.2 | 4.8 | 0.00 | 0.00 | 0.00 | 24 | 1015.2 |
| 20260507150021 | 23 | 293 | 4.8 | 6.4 | 0.00 | 0.00 | 0.00 | 25 | 1015.1 |
| 20260507145515 | 23 | 307 | 6.4 | 9.7 | 0.00 | 0.00 | 0.00 | 25 | 1015.2 |
| 20260507145014 | 23 | 347 | 6.4 | 9.7 | 0.00 | 0.00 | 0.00 | 26 | 1015.3 |
| 20260507144510 | 22 | 327 | 6.4 | 6.4 | 0.00 | 0.00 | 0.00 | 26 | 1015.0 |
| 20260507144008 | 22 | 323 | 6.4 | 6.4 | 0.00 | 0.00 | 0.00 | 26 | 1015.1 |
| 20260507143505 | 22 | 16 | 6.4 | 6.4 | 0.00 | 0.00 | 0.00 | 26 | 1015.1 |
| 20260507143002 | 22 | 352 | 6.4 | 9.7 | 0.00 | 0.00 | 0.00 | 27 | 1015.0 |
| 20260507142457 | 21 | 348 | 9.7 | 11.3 | 0.00 | 0.00 | 0.00 | 28 | 1014.8 |
| 20260507141954 | 21 | 31 | 3.2 | 3.2 | 0.00 | 0.00 | 0.00 | 28 | 1014.9 |
| 20260507141450 | 20 | 339 | 9.7 | 11.3 | 0.00 | 0.00 | 0.00 | 29 | 1014.9 |
| 20260507140947 | 20 | 35 | 11.3 | 12.9 | 0.00 | 0.00 | 0.00 | 29 | 1014.8 |
| 20260507140444 | 20 | 0 | 4.8 | 4.8 | 0.00 | 0.00 | 0.00 | 29 | 1014.9 |
| 20260507135941 | 20 | 359 | 9.7 | 11.3 | 0.00 | 0.00 | 0.00 | 29 | 1014.8 |
| 20260507135438 | 20 | 29 | 4.8 | 4.8 | 0.00 | 0.00 | 0.00 | 29 | 1014.9 |
| 20260507134935 | 20 | 6 | 3.2 | 3.2 | 0.00 | 0.00 | 0.00 | 30 | 1014.7 |
| 20260507134432 | 19 | 23 | 3.2 | 3.2 | 0.00 | 0.00 | 0.00 | 30 | 1014.7 |
| 20260507133928 | 18 | 39 | 1.6 | 3.2 | 0.00 | 0.00 | 0.00 | 31 | 1014.7 |
| 20260507133424 | 18 | 38 | 0.0 | 1.6 | 0.00 | 0.00 | 0.00 | 32 | 1014.7 |
| 20260507132923 | 17 | 336 | 4.8 | 6.4 | 0.00 | 0.00 | 0.00 | 33 | 1014.8 |
| 20260507132418 | 17 | 34 | 1.6 | 1.6 | 0.00 | 0.00 | 0.00 | 33 | 1014.6 |
| 20260507131915 | 16 | 25 | 1.6 | 1.6 | 0.00 | 0.00 | 0.00 | 34 | 1014.6 |
| 20260507131412 | 16 | 29 | 1.6 | 1.6 | 0.00 | 0.00 | 0.00 | 34 | 1014.7 |
| 20260507130909 | 16 | 13 | 1.6 | 3.2 | 0.00 | 0.00 | 0.00 | 35 | 1014.6 |
| 20260507130406 | 16 | 6 | 3.2 | 3.2 | 0.00 | 0.00 | 0.00 | 35 | 1014.5 |
| 20260507125905 | 16 | 15 | 0.0 | 1.6 | 0.00 | 0.00 | 0.00 | 35 | 1014.7 |
| 20260507125402 | 15 | 33 | 3.2 | 3.2 | 0.00 | 0.00 | 0.00 | 35 | 1014.4 |
| 20260507124900 | 15 | 17 | 1.6 | 1.6 | 0.00 | 0.00 | 0.00 | 35 | 1014.5 |
| 20260507124355 | 15 | 359 | 3.2 | 4.8 | 0.00 | 0.00 | 0.00 | 35 | 1014.7 |
| 20260507123854 | 15 | 8 | 1.6 | 3.2 | 0.00 | 0.00 | 0.00 | 36 | 1014.5 |
| 20260507123351 | 15 | 32 | 1.6 | 1.6 | 0.00 | 0.00 | 0.00 | 35 | 1014.6 |
| 20260507122847 | 16 | 15 | 1.6 | 1.6 | 0.00 | 0.00 | 0.00 | 35 | 1014.7 |
| 20260507122342 | 16 | 37 | 1.6 | 1.6 | 0.00 | 0.00 | 0.00 | 35 | 1014.6 |
| 20260507121839 | 16 | 15 | 3.2 | 3.2 | 0.00 | 0.00 | 0.00 | 35 | 1014.6 |
| 20260507121335 | 16 | 7 | 3.2 | 3.2 | 0.00 | 0.00 | 0.00 | 35 | 1014.8 |
| 20260507120832 | 16 | 31 | 3.2 | 3.2 | 0.00 | 0.00 | 0.00 | 35 | 1014.6 |
| 20260507120328 | 16 | 324 | 4.8 | 6.4 | 0.00 | 0.00 | 0.00 | 35 | 1014.7 |
| 20260507115824 | 16 | 10 | 3.2 | 3.2 | 0.00 | 0.00 | 0.00 | 34 | 1014.6 |
| 20260507115320 | 16 | 0 | 3.2 | 4.8 | 0.00 | 0.00 | 0.00 | 34 | 1014.7 |
| 20260507114816 | 16 | 32 | 3.2 | 3.2 | 0.00 | 0.00 | 0.00 | 34 | 1014.7 |
| 20260507114313 | 16 | 33 | 1.6 | 1.6 | 0.00 | 0.00 | 0.00 | 34 | 1014.8 |
| 20260507113811 | 16 | 35 | 0.0 | 0.0 | 0.00 | 0.00 | 0.00 | 35 | 1015.0 |
| 20260507113307 | 16 | 50 | 1.6 | 3.2 | 0.00 | 0.00 | 0.00 | 34 | 1014.9 |
| 20260507112805 | 16 | 36 | 0.0 | 1.6 | 0.00 | 0.00 | 0.00 | 34 | 1014.9 |
| 20260507112306 | 16 | 50 | 0.0 | 1.6 | 0.00 | 0.00 | 0.00 | 34 | 1014.9 |
| 20260507111800 | 16 | 40 | 0.0 | 1.6 | 0.00 | 0.00 | 0.00 | 34 | 1015.1 |
| 20260507111256 | 16 | 345 | 3.2 | 4.8 | 0.00 | 0.00 | 0.00 | 34 | 1015.1 |
| 20260507110752 | 17 | 31 | 3.2 | 3.2 | 0.00 | 0.00 | 0.00 | 33 | 1014.9 |
| 20260507110249 | 17 | 2 | 3.2 | 4.8 | 0.00 | 0.00 | 0.00 | 33 | 1015.0 |
| 20260507105746 | 17 | 25 | 3.2 | 3.2 | 0.00 | 0.00 | 0.00 | 33 | 1015.1 |
| 20260507105241 | 17 | 16 | 1.6 | 1.6 | 0.00 | 0.00 | 0.00 | 33 | 1015.0 |
| 20260507104739 | 17 | 18 | 3.2 | 3.2 | 0.00 | 0.00 | 0.00 | 33 | 1015.0 |
| 20260507104236 | 17 | 37 | 1.6 | 3.2 | 0.00 | 0.00 | 0.00 | 33 | 1015.0 |
| 20260507103732 | 17 | 20 | 3.2 | 4.8 | 0.00 | 0.00 | 0.00 | 33 | 1015.1 |
| 20260507103228 | 17 | 20 | 3.2 | 3.2 | 0.00 | 0.00 | 0.00 | 32 | 1015.1 |
| 20260507102724 | 17 | 19 | 3.2 | 3.2 | 0.00 | 0.00 | 0.00 | 33 | 1015.2 |
| 20260507102221 | 17 | 20 | 1.6 | 1.6 | 0.00 | 0.00 | 0.00 | 33 | 1015.3 |
| 20260507101717 | 17 | 7 | 1.6 | 1.6 | 0.00 | 0.00 | 0.00 | 33 | 1015.0 |
| 20260507101212 | 17 | 41 | 0.0 | 0.0 | 0.00 | 0.00 | 0.00 | 33 | 1015.2 |
| 20260507100710 | 16 | 55 | 1.6 | 1.6 | 0.00 | 0.00 | 0.00 | 33 | 1015.2 |
| 20260507100208 | 16 | 45 | 0.0 | 0.0 | 0.00 | 0.00 | 0.00 | 33 | 1015.0 |
| 20260507095706 | 16 | 26 | 1.6 | 1.6 | 0.00 | 0.00 | 0.00 | 33 | 1015.2 |
| 20260507095202 | 16 | 32 | 1.6 | 3.2 | 0.00 | 0.00 | 0.00 | 32 | 1015.1 |
| 20260507094659 | 17 | 22 | 1.6 | 1.6 | 0.00 | 0.00 | 0.00 | 32 | 1015.0 |
| 20260507094155 | 17 | 52 | 1.6 | 1.6 | 0.00 | 0.00 | 0.00 | 33 | 1015.2 |
| 20260507093653 | 17 | 38 | 0.0 | 1.6 | 0.00 | 0.00 | 0.00 | 32 | 1015.3 |
| 20260507093152 | 17 | 20 | 1.6 | 1.6 | 0.00 | 0.00 | 0.00 | 33 | 1015.2 |
| 20260507092648 | 17 | 37 | 1.6 | 1.6 | 0.00 | 0.00 | 0.00 | 32 | 1015.3 |
| 20260507092145 | 17 | 37 | 0.0 | 0.0 | 0.00 | 0.00 | 0.00 | 32 | 1015.3 |
| 20260507091641 | 17 | 49 | 0.0 | 0.0 | 0.00 | 0.00 | 0.00 | 32 | 1015.2 |
| 20260507091137 | 17 | 45 | 0.0 | 0.0 | 0.00 | 0.00 | 0.00 | 32 | 1015.4 |
| 20260507090633 | 17 | 25 | 1.6 | 1.6 | 0.00 | 0.00 | 0.00 | 31 | 1015.2 |
| 20260507090131 | 18 | 10 | 4.8 | 4.8 | 0.00 | 0.00 | 0.00 | 31 | 1015.3 |
| 20260507085627 | 18 | 12 | 3.2 | 3.2 | 0.00 | 0.00 | 0.00 | 31 | 1015.4 |
| 20260507085124 | 17 | 22 | 1.6 | 1.6 | 0.00 | 0.00 | 0.00 | 31 | 1015.4 |
| 20260507084621 | 18 | 39 | 0.0 | 0.0 | 0.00 | 0.00 | 0.00 | 31 | 1015.5 |
| 20260507084118 | 18 | 51 | 0.0 | 0.0 | 0.00 | 0.00 | 0.00 | 31 | 1015.5 |
| 20260507083614 | 18 | 38 | 0.0 | 1.6 | 0.00 | 0.00 | 0.00 | 30 | 1015.6 |
| 20260507083106 | 18 | 40 | 1.6 | 1.6 | 0.00 | 0.00 | 0.00 | 30 | 1015.7 |
| 20260507082601 | 19 | 23 | 3.2 | 3.2 | 0.00 | 0.00 | 0.00 | 30 | 1015.6 |
| 20260507082058 | 19 | 13 | 1.6 | 1.6 | 0.00 | 0.00 | 0.00 | 30 | 1015.6 |
| 20260507081554 | 19 | 13 | 3.2 | 3.2 | 0.00 | 0.00 | 0.00 | 29 | 1015.5 |
| 20260507081051 | 19 | 353 | 3.2 | 3.2 | 0.00 | 0.00 | 0.00 | 30 | 1015.6 |
| 20260507080547 | 18 | 36 | 1.6 | 3.2 | 0.00 | 0.00 | 0.00 | 29 | 1015.7 |
| 20260507080044 | 18 | 0 | 1.6 | 1.6 | 0.00 | 0.00 | 0.00 | 30 | 1015.7 |
| 20260507075539 | 17 | 22 | 3.2 | 3.2 | 0.00 | 0.00 | 0.00 | 30 | 1015.7 |
| 20260507075036 | 18 | 352 | 3.2 | 4.8 | 0.00 | 0.00 | 0.00 | 29 | 1015.5 |
| 20260507074533 | 18 | 24 | 1.6 | 1.6 | 0.00 | 0.00 | 0.00 | 29 | 1015.6 |
| 20260507074031 | 18 | 31 | 1.6 | 1.6 | 0.00 | 0.00 | 0.00 | 30 | 1015.5 |
| 20260507073526 | 18 | 30 | 0.0 | 0.0 | 0.00 | 0.00 | 0.00 | 30 | 1015.5 |
| 20260507073023 | 18 | 20 | 0.0 | 1.6 | 0.00 | 0.00 | 0.00 | 29 | 1015.5 |
| 20260507072521 | 18 | 15 | 1.6 | 1.6 | 0.00 | 0.00 | 0.00 | 29 | 1015.5 |
| 20260507072018 | 19 | 37 | 0.0 | 0.0 | 0.00 | 0.00 | 0.00 | 29 | 1015.6 |
| 20260507071515 | 19 | 39 | 0.0 | 1.6 | 0.00 | 0.00 | 0.00 | 29 | 1015.8 |
| 20260507071012 | 20 | 46 | 0.0 | 0.0 | 0.00 | 0.00 | 0.00 | 28 | 1015.6 |
| 20260507070509 | 19 | 38 | 0.0 | 0.0 | 0.00 | 0.00 | 0.00 | 29 | 1015.6 |
| 20260507070010 | 19 | 39 | 0.0 | 0.0 | 0.00 | 0.00 | 0.00 | 29 | 1015.8 |
| 20260507065503 | 18 | 40 | 0.0 | 0.0 | 0.00 | 0.00 | 0.00 | 29 | 1015.5 |
| 20260507065000 | 18 | 37 | 0.0 | 0.0 | 0.00 | 0.00 | 0.00 | 29 | 1015.5 |
| 20260507064458 | 19 | 41 | 0.0 | 0.0 | 0.00 | 0.00 | 0.00 | 29 | 1015.6 |
| 20260507063956 | 20 | 32 | 0.0 | 0.0 | 0.00 | 0.00 | 0.00 | 28 | 1015.8 |
| 20260507063452 | 20 | 67 | 1.6 | 1.6 | 0.00 | 0.00 | 0.00 | 28 | 1015.6 |
| 20260507062949 | 19 | 64 | 1.6 | 1.6 | 0.00 | 0.00 | 0.00 | 28 | 1015.4 |
| 20260507062446 | 20 | 72 | 3.2 | 3.2 | 0.00 | 0.00 | 0.00 | 28 | 1015.6 |
| 20260507061944 | 20 | 45 | 0.0 | 0.0 | 0.00 | 0.00 | 0.00 | 28 | 1015.4 |
| 20260507061442 | 20 | 38 | 0.0 | 0.0 | 0.00 | 0.00 | 0.00 | 28 | 1015.5 |
| 20260507060940 | 20 | 45 | 0.0 | 1.6 | 0.00 | 0.00 | 0.00 | 28 | 1015.6 |
| 20260507060436 | 20 | 65 | 1.6 | 1.6 | 0.00 | 0.00 | 0.00 | 28 | 1015.6 |
| 20260507055933 | 19 | 73 | 3.2 | 3.2 | 0.00 | 0.00 | 0.00 | 28 | 1015.4 |
| 20260507055428 | 20 | 54 | 0.0 | 1.6 | 0.00 | 0.00 | 0.00 | 28 | 1015.5 |
| 20260507054925 | 18 | 53 | 0.0 | 1.6 | 0.00 | 0.00 | 0.00 | 28 | 1015.5 |
| 20260507054421 | 18 | 75 | 3.2 | 3.2 | 0.00 | 0.00 | 0.00 | 28 | 1015.5 |
| 20260507053919 | 19 | 60 | 1.6 | 1.6 | 0.00 | 0.00 | 0.00 | 28 | 1015.4 |
| 20260507053416 | 20 | 61 | 1.6 | 1.6 | 0.00 | 0.00 | 0.00 | 28 | 1015.4 |
| 20260507052915 | 21 | 59 | 3.2 | 3.2 | 0.00 | 0.00 | 0.00 | 27 | 1015.6 |
| 20260507052412 | 21 | 39 | 0.0 | 0.0 | 0.00 | 0.00 | 0.00 | 27 | 1015.5 |
| 20260507051908 | 21 | 37 | 0.0 | 0.0 | 0.00 | 0.00 | 0.00 | 27 | 1015.6 |
| 20260507051406 | 22 | 33 | 0.0 | 1.6 | 0.00 | 0.00 | 0.00 | 26 | 1015.5 |
| 20260507050903 | 22 | 31 | 0.0 | 0.0 | 0.00 | 0.00 | 0.00 | 26 | 1015.4 |
| 20260507050359 | 22 | 29 | 0.0 | 1.6 | 0.00 | 0.00 | 0.00 | 26 | 1015.4 |
| 20260507045856 | 22 | 33 | 0.0 | 0.0 | 0.00 | 0.00 | 0.00 | 26 | 1015.2 |
| 20260507045353 | 22 | 17 | 1.6 | 1.6 | 0.00 | 0.00 | 0.00 | 26 | 1015.3 |
| 20260507044850 | 22 | 341 | 1.6 | 3.2 | 0.00 | 0.00 | 0.00 | 26 | 1015.2 |
| 20260507044346 | 22 | 1 | 1.6 | 1.6 | 0.00 | 0.00 | 0.00 | 26 | 1015.3 |
| 20260507043842 | 22 | 10 | 1.6 | 1.6 | 0.00 | 0.00 | 0.00 | 26 | 1015.2 |
| 20260507043339 | 22 | 358 | 1.6 | 3.2 | 0.00 | 0.00 | 0.00 | 26 | 1015.3 |
| 20260507042836 | 22 | 20 | 1.6 | 1.6 | 0.00 | 0.00 | 0.00 | 26 | 1015.2 |
| 20260507042331 | 22 | 2 | 1.6 | 1.6 | 0.00 | 0.00 | 0.00 | 25 | 1015.1 |
| 20260507041828 | 23 | 7 | 3.2 | 3.2 | 0.00 | 0.00 | 0.00 | 25 | 1015.1 |
| 20260507041325 | 23 | 338 | 3.2 | 3.2 | 0.00 | 0.00 | 0.00 | 25 | 1014.9 |
| 20260507040822 | 23 | 251 | 6.4 | 6.4 | 0.00 | 0.00 | 0.00 | 25 | 1014.9 |
| 20260507040318 | 23 | 20 | 3.2 | 4.8 | 0.00 | 0.00 | 0.00 | 25 | 1014.7 |
| 20260507035814 | 23 | 12 | 4.8 | 6.4 | 0.00 | 0.00 | 0.00 | 24 | 1014.6 |
| 20260507035310 | 23 | 305 | 4.8 | 6.4 | 0.00 | 0.00 | 0.00 | 24 | 1014.6 |
| 20260507034808 | 23 | 249 | 3.2 | 4.8 | 0.00 | 0.00 | 0.00 | 24 | 1014.9 |
| 20260507034304 | 23 | 252 | 3.2 | 6.4 | 0.00 | 0.00 | 0.00 | 24 | 1014.6 |
| 20260507033803 | 23 | 229 | 6.4 | 6.4 | 0.00 | 0.00 | 0.00 | 24 | 1014.6 |
| 20260507033300 | 23 | 293 | 6.4 | 9.7 | 0.00 | 0.00 | 0.00 | 24 | 1014.5 |
| 20260507032757 | 23 | 263 | 3.2 | 4.8 | 0.00 | 0.00 | 0.00 | 24 | 1014.4 |
| 20260507032253 | 23 | 235 | 6.4 | 9.7 | 0.00 | 0.00 | 0.00 | 24 | 1014.1 |
| 20260507031749 | 24 | 237 | 8.0 | 11.3 | 0.00 | 0.00 | 0.00 | 24 | 1014.1 |
| 20260507031247 | 24 | 198 | 6.4 | 6.4 | 0.00 | 0.00 | 0.00 | 24 | 1014.1 |
| 20260507030743 | 24 | 218 | 3.2 | 4.8 | 0.00 | 0.00 | 0.00 | 24 | 1014.0 |
| 20260507030241 | 24 | 206 | 6.4 | 9.7 | 0.00 | 0.00 | 0.00 | 24 | 1014.0 |
| 20260507025738 | 24 | 211 | 6.4 | 9.7 | 0.00 | 0.00 | 0.00 | 24 | 1014.0 |
| 20260507025234 | 24 | 269 | 4.8 | 6.4 | 0.00 | 0.00 | 0.00 | 24 | 1013.8 |
| 20260507024733 | 24 | 178 | 3.2 | 3.2 | 0.00 | 0.00 | 0.00 | 24 | 1013.7 |
| 20260507024230 | 24 | 155 | 6.4 | 6.4 | 0.00 | 0.00 | 0.00 | 24 | 1013.8 |
| 20260507023725 | 25 | 169 | 3.2 | 4.8 | 0.00 | 0.00 | 0.00 | 24 | 1013.7 |
| 20260507023222 | 25 | 299 | 6.4 | 6.4 | 0.00 | 0.00 | 0.00 | 23 | 1013.8 |
| 20260507022720 | 25 | 124 | 4.8 | 6.4 | 0.00 | 0.00 | 0.00 | 23 | 1013.7 |
| 20260507022215 | 25 | 95 | 4.8 | 6.4 | 0.00 | 0.00 | 0.00 | 23 | 1013.6 |
| 20260507021712 | 25 | 249 | 6.4 | 6.4 | 0.00 | 0.00 | 0.00 | 23 | 1013.7 |
| 20260507021207 | 25 | 205 | 9.7 | 14.5 | 0.00 | 0.00 | 0.00 | 23 | 1013.4 |
| 20260507020706 | 25 | 231 | 11.3 | 14.5 | 0.00 | 0.00 | 0.00 | 23 | 1013.4 |
| 20260507020202 | 25 | 232 | 4.8 | 4.8 | 0.00 | 0.00 | 0.00 | 23 | 1013.4 |
| 20260507015700 | 26 | 157 | 12.9 | 14.5 | 0.00 | 0.00 | 0.00 | 23 | 1013.4 |
| 20260507015157 | 26 | 222 | 3.2 | 4.8 | 0.00 | 0.00 | 0.00 | 23 | 1013.4 |
| 20260507014653 | 26 | 54 | 6.4 | 6.4 | 0.00 | 0.00 | 0.00 | 22 | 1013.3 |
| 20260507014149 | 26 | 254 | 11.3 | 14.5 | 0.00 | 0.00 | 0.00 | 22 | 1013.5 |
| 20260507013646 | 26 | 171 | 4.8 | 6.4 | 0.00 | 0.00 | 0.00 | 22 | 1013.2 |
| 20260507013144 | 26 | 163 | 16.1 | 17.7 | 0.00 | 0.00 | 0.00 | 22 | 1013.3 |
| 20260507012641 | 26 | 200 | 14.5 | 17.7 | 0.00 | 0.00 | 0.00 | 22 | 1013.2 |
| 20260507012136 | 26 | 170 | 12.9 | 16.1 | 0.00 | 0.00 | 0.00 | 22 | 1013.4 |
| 20260507011635 | 26 | 162 | 11.3 | 14.5 | 0.00 | 0.00 | 0.00 | 22 | 1013.2 |
| 20260507011131 | 27 | 160 | 12.9 | 17.7 | 0.00 | 0.00 | 0.00 | 22 | 1013.0 |
| 20260507010625 | 27 | 241 | 11.3 | 14.5 | 0.00 | 0.00 | 0.00 | 22 | 1013.2 |
| 20260507010122 | 27 | 182 | 8.0 | 12.9 | 0.00 | 0.00 | 0.00 | 22 | 1013.1 |
| 20260507005619 | 27 | 213 | 11.3 | 12.9 | 0.00 | 0.00 | 0.00 | 22 | 1013.1 |
| 20260507005115 | 27 | 193 | 6.4 | 6.4 | 0.00 | 0.00 | 0.00 | 21 | 1012.9 |
| 20260507004612 | 26 | 182 | 11.3 | 14.5 | 0.00 | 0.00 | 0.00 | 22 | 1012.9 |
| 20260507004110 | 27 | 132 | 12.9 | 14.5 | 0.00 | 0.00 | 0.00 | 22 | 1012.9 |
| 20260507003606 | 27 | 194 | 6.4 | 11.3 | 0.00 | 0.00 | 0.00 | 22 | 1013.1 |
| 20260507003101 | 27 | 237 | 16.1 | 17.7 | 0.00 | 0.00 | 0.00 | 21 | 1013.1 |
| 20260507002558 | 27 | 238 | 11.3 | 14.5 | 0.00 | 0.00 | 0.00 | 22 | 1013.0 |
| 20260507002053 | 27 | 306 | 11.3 | 14.5 | 0.00 | 0.00 | 0.00 | 22 | 1013.1 |
| 20260507001550 | 27 | 274 | 11.3 | 14.5 | 0.00 | 0.00 | 0.00 | 21 | 1013.1 |
| 20260507001048 | 27 | 79 | 8.0 | 11.3 | 0.00 | 0.00 | 0.00 | 22 | 1013.1 |
| 20260507000543 | 27 | 166 | 8.0 | 11.3 | 0.00 | 0.00 | 0.00 | 21 | 1013.0 |
| 20260507000039 | 27 | 133 | 16.1 | 20.9 | 0.00 | 0.00 | 0.00 | 22 | 1013.1 |
| 20260506235537 | 27 | 89 | 8.0 | 11.3 | 0.00 | 0.00 | 0.00 | 22 | 1013.0 |
| 20260506235032 | 27 | 252 | 8.0 | 9.7 | 0.00 | 0.00 | 0.00 | 22 | 1013.1 |
| 20260506234530 | 27 | 221 | 6.4 | 9.7 | 0.00 | 0.00 | 0.00 | 22 | 1013.1 |
| 20260506234022 | 27 | 222 | 16.1 | 17.7 | 0.00 | 0.00 | 0.00 | 21 | 1013.0 |
| 20260506233518 | 27 | 225 | 11.3 | 14.5 | 0.00 | 0.00 | 0.00 | 21 | 1013.1 |
| 20260506233015 | 27 | 176 | 11.3 | 12.9 | 0.00 | 0.00 | 0.00 | 22 | 1013.1 |
| 20260506232511 | 27 | 212 | 17.7 | 20.9 | 0.00 | 0.00 | 0.00 | 22 | 1013.2 |
| 20260506232007 | 27 | 263 | 9.7 | 12.9 | 0.00 | 0.00 | 0.00 | 22 | 1013.2 |
| 20260506231505 | 27 | 186 | 4.8 | 6.4 | 0.00 | 0.00 | 0.00 | 22 | 1013.1 |
| 20260506231003 | 27 | 147 | 9.7 | 11.3 | 0.00 | 0.00 | 0.00 | 22 | 1013.3 |
| 20260506230458 | 27 | 204 | 4.8 | 4.8 | 0.00 | 0.00 | 0.00 | 22 | 1013.4 |
| 20260506225954 | 27 | 248 | 16.1 | 20.9 | 0.00 | 0.00 | 0.00 | 21 | 1013.4 |
| 20260506225452 | 27 | 59 | 1.6 | 3.2 | 0.00 | 0.00 | 0.00 | 22 | 1013.4 |
| 20260506224948 | 27 | 208 | 9.7 | 11.3 | 0.00 | 0.00 | 0.00 | 22 | 1013.5 |
| 20260506224446 | 27 | 168 | 16.1 | 17.7 | 0.00 | 0.00 | 0.00 | 22 | 1013.3 |
| 20260506223943 | 27 | 236 | 11.3 | 14.5 | 0.00 | 0.00 | 0.00 | 22 | 1013.3 |
| 20260506223439 | 27 | 216 | 9.7 | 11.3 | 0.00 | 0.00 | 0.00 | 22 | 1013.5 |
| 20260506222936 | 27 | 273 | 14.5 | 20.9 | 0.00 | 0.00 | 0.00 | 22 | 1013.8 |
| 20260506222433 | 27 | 323 | 3.2 | 3.2 | 0.00 | 0.00 | 0.00 | 22 | 1013.7 |
| 20260506221929 | 27 | 259 | 14.5 | 14.5 | 0.00 | 0.00 | 0.00 | 22 | 1013.7 |
| 20260506221425 | 27 | 106 | 12.9 | 14.5 | 0.00 | 0.00 | 0.00 | 23 | 1013.7 |
| 20260506220924 | 27 | 232 | 9.7 | 14.5 | 0.00 | 0.00 | 0.00 | 22 | 1013.8 |
| 20260506220419 | 27 | 206 | 9.7 | 14.5 | 0.00 | 0.00 | 0.00 | 22 | 1013.9 |
| 20260506215915 | 27 | 160 | 9.7 | 12.9 | 0.00 | 0.00 | 0.00 | 22 | 1013.9 |
| 20260506215412 | 27 | 313 | 8.0 | 11.3 | 0.00 | 0.00 | 0.00 | 22 | 1013.9 |
| 20260506214907 | 27 | 221 | 6.4 | 6.4 | 0.00 | 0.00 | 0.00 | 22 | 1014.3 |
| 20260506214404 | 27 | 253 | 11.3 | 12.9 | 0.00 | 0.00 | 0.00 | 22 | 1014.0 |
| 20260506213902 | 27 | 255 | 8.0 | 11.3 | 0.00 | 0.00 | 0.00 | 23 | 1014.3 |
| 20260506213400 | 26 | 209 | 8.0 | 12.9 | 0.00 | 0.00 | 0.00 | 22 | 1014.3 |
| 20260506212857 | 26 | 171 | 9.7 | 14.5 | 0.00 | 0.00 | 0.00 | 23 | 1014.5 |
| 20260506212353 | 25 | 91 | 19.3 | 22.5 | 0.00 | 0.00 | 0.00 | 24 | 1014.6 |
| 20260506211847 | 27 | 239 | 12.9 | 14.5 | 0.00 | 0.00 | 0.00 | 22 | 1014.6 |
| 20260506211344 | 26 | 160 | 6.4 | 6.4 | 0.00 | 0.00 | 0.00 | 23 | 1014.7 |
| 20260506210841 | 26 | 236 | 9.7 | 16.1 | 0.00 | 0.00 | 0.00 | 23 | 1014.7 |
| 20260506210338 | 26 | 231 | 6.4 | 9.7 | 0.00 | 0.00 | 0.00 | 23 | 1014.9 |
| 20260506205835 | 26 | 249 | 14.5 | 17.7 | 0.00 | 0.00 | 0.00 | 23 | 1015.0 |
| 20260506205331 | 27 | 264 | 22.5 | 29.0 | 0.00 | 0.00 | 0.00 | 23 | 1014.8 |
| 20260506204828 | 26 | 319 | 6.4 | 9.7 | 0.00 | 0.00 | 0.00 | 23 | 1015.0 |
| 20260506204325 | 25 | 279 | 9.7 | 11.3 | 0.00 | 0.00 | 0.00 | 23 | 1015.0 |
| 20260506203823 | 25 | 179 | 11.3 | 12.9 | 0.00 | 0.00 | 0.00 | 24 | 1014.9 |